Cherdyn, Russia
Current Conditions -  °F | °C
As of 8:30 AM on Sunday 26 Oct 2014 (Local Time) from USPP Reporting Station
Scattered Clouds Scattered Clouds  
Wind Chill: -7°   Ceiling: Unl
Heat Index:   Visibility: 6mi
Dew Point:   Wind: 9mph
Humidity: 92%   Direction: 290°WNW
Pressure: 30.3"   Gusts: NA
Location:  60.4°N, 56.48°E
Report Text: USPP 260330Z 29004MPS 9000 FEW002 SCT200 M14/M15 Q1026 21810255NOSIG RMK QBB060 QFE759/1012
Loading
Personal Weather Stations






























Interactive Weather Map
Tropical Storm Tracking
New forecast layout! Learn more

10-Day Weather Forecast

Advertisements
Track Severe Weather on mobile